Flight Track Log - Related Links

Times and Time Zones

All times are in EDT time to prevent confusion due to time zone crossing. See the UAL139 flight status page for this flight to view local times or setup timezone preferences in your user account.

Time Position Orientation Groundspeed Altitude Reporting Facility
EDT Latitude Longitude Course Direction KTS MPH feet Rate Location/Type
Thu 03:02:54 PM 39.8650 -104.6960 North 135 155 5,100  Level FlightAware ADS-B
Thu 03:03:06 PM 39.8760 -104.6960 360° North 184 212 5,100 750 Level FlightAware ADS-B
Thu 03:03:26 PM 39.8950 -104.6960 360° North 211 243 5,500 1,655 Climbing FlightAware ADS-B
Thu 03:04:04 PM 39.9320 -104.7000 355° North 226 260 6,700 1,759 Climbing FlightAware ADS-B
Thu 03:04:24 PM 39.9530 -104.7060 348° North 244 281 7,200 1,833 Climbing FlightAware ADS-B
Thu 03:04:40 PM 39.9710 -104.7110 348° North 252 290 7,800 1,909 Climbing FlightAware ADS-B
Thu 03:05:08 PM 40.0060 -104.7210 348° North 276 318 8,600 2,000 Climbing FlightAware ADS-B
Thu 03:05:28 PM 40.0320 -104.7280 348° North 280 322 9,400 1,833 Climbing FlightAware ADS-B
Thu 03:05:44 PM 40.0510 -104.7340 346° North 276 318 9,700 1,385 Climbing FlightAware ADS-B
Thu 03:06:20 PM 40.0960 -104.7540 341° North 295 339 10,600 1,412 Climbing FlightAware ADS-B
Thu 03:06:52 PM 40.1390 -104.7750 340° North 325 374 11,300 1,853 Climbing FlightAware ADS-B
Thu 03:07:28 PM 40.1920 -104.8000 340° North 336 387 12,700 2,417 Climbing FlightAware ADS-B
Thu 03:08:04 PM 40.2450 -104.8240 341° North 342 394 14,200 2,559 Climbing FlightAware ADS-B
Thu 03:08:36 PM 40.2930 -104.8470 340° North 348 400 15,600 2,559 Climbing FlightAware ADS-B
Thu 03:09:12 PM 40.3480 -104.8730 340° North 353 406 17,100 2,500 Climbing FlightAware ADS-B
Thu 03:09:48 PM 40.4040 -104.8990 341° North 357 411 18,600 2,382 Climbing FlightAware ADS-B
Thu 03:10:20 PM 40.4550 -104.9220 341° North 364 419 19,800 2,083 Climbing FlightAware ADS-B
Thu 03:11:00 PM 40.5190 -104.9520 340° North 373 429 21,100 1,946 Climbing FlightAware ADS-B
Thu 03:11:34 PM 40.5740 -104.9780 340° North 379 436 22,200 1,703 Climbing FlightAware ADS-B
Thu 03:12:14 PM 40.6420 -105.0100 340° North 386 444 23,200 1,769 Climbing FlightAware ADS-B
Thu 03:12:52 PM 40.7050 -105.0400 340° North 389 448 24,500 1,971 Climbing FlightAware ADS-B
Thu 03:13:24 PM 40.7560 -105.0670 338° Northwest 392 451 25,500 1,818 Climbing FlightAware ADS-B
Thu 03:13:58 PM 40.8060 -105.1150 324° Northwest 398 458 26,500 1,667 Climbing FlightAware ADS-B
Thu 03:14:36 PM 40.8630 -105.1790 320° Northwest 408 470 27,500 1,606 Climbing FlightAware ADS-B
Thu 03:15:09 PM 40.9110 -105.2330 320° Northwest 411 473 28,400 1,565 Climbing FlightAware ADS-B
Thu 03:15:45 PM 40.9620 -105.2920 319° Northwest 415 478 29,300 1,397 Climbing FlightAware ADS-B
Thu 03:16:22 PM 41.0180 -105.3540 320° Northwest 419 482 30,100 1,324 Climbing FlightAware ADS-B
Thu 03:16:53 PM 41.0620 -105.4050 319° Northwest 423 487 30,800 1,324 Climbing FlightAware ADS-B
Thu 03:17:30 PM 41.1180 -105.4690 319° Northwest 428 493 31,600 1,135 Climbing FlightAware ADS-B
Thu 03:18:07 PM 41.1720 -105.5310 319° Northwest 434 499 32,200 1,059 Climbing FlightAware ADS-B
Thu 03:18:38 PM 41.2220 -105.5870 320° Northwest 437 503 32,800 1,130 Climbing FlightAware ADS-B
Thu 03:19:16 PM 41.2790 -105.6540 319° Northwest 440 506 33,500 1,000 Climbing FlightAware ADS-B
Thu 03:19:50 PM 41.3300 -105.7140 319° Northwest 444 511 34,000 771 Climbing FlightAware ADS-B
Thu 03:20:26 PM 41.3810 -105.7880 313° West 449 517 34,400 971 Climbing FlightAware ADS-B
Thu 03:20:58 PM 41.4240 -105.8550 311° West 446 513 35,100 1,286 Climbing FlightAware ADS-B
Thu 03:21:36 PM 41.4740 -105.9340 310° West 444 511 35,900 1,029 Climbing FlightAware ADS-B
Thu 03:22:08 PM 41.5180 -106.0030 310° West 444 511 36,300 794 Climbing FlightAware ADS-B
Thu 03:22:44 PM 41.5650 -106.0770 310° West 444 511 36,800 900 Climbing FlightAware ADS-B
Thu 03:23:08 PM 41.5970 -106.1270 311° West 443 510 37,200 831 Climbing FlightAware ADS-B
Thu 03:23:49 PM 41.6480 -106.2090 310° West 441 507 37,700 706 Climbing FlightAware ADS-B
Thu 03:24:16 PM 41.6850 -106.2680 310° West 440 506 38,000 295 Climbing FlightAware ADS-B
Thu 03:24:50 PM 41.7270 -106.3330 311° West 440 506 38,000  Level FlightAware ADS-B
Thu 03:25:38 PM 41.7940 -106.4400 310° West 438 504 38,000  Level FlightAware ADS-B
Thu 03:26:14 PM 41.8400 -106.5130 310° West 439 505 38,000  Level FlightAware ADS-B
Thu 03:26:50 PM 41.8790 -106.5780 309° West 439 505 38,000  Level FlightAware ADS-B
Thu 03:27:26 PM 41.9180 -106.6430 309° West 439 505 38,000  Level FlightAware ADS-B
Thu 03:28:02 PM 41.9570 -106.7080 309° West 439 505 38,000  Level FlightAware ADS-B
Thu 03:28:38 PM 41.9960 -106.7730 309° West 439 505 38,000  Level FlightAware ADS-B
Thu 03:29:15 PM 42.0370 -106.8400 309° West 439 505 38,000  Level FlightAware ADS-B
Thu 03:29:52 PM 42.0770 -106.9070 309° West 439 505 38,000  Level FlightAware ADS-B
Thu 03:30:29 PM 42.1170 -106.9740 309° West 439 505 38,000  Level FlightAware ADS-B
Thu 03:31:05 PM 42.1560 -107.0390 309° West 439 505 38,000  Level FlightAware ADS-B
Thu 03:31:51 PM 42.2060 -107.1220 309° West 439 505 38,000  Level FlightAware ADS-B
Thu 03:32:27 PM 42.2450 -107.1870 309° West 439 505 38,000  Level FlightAware ADS-B
Thu 03:32:51 PM 42.2710 -107.2310 309° West 439 505 38,000  Level FlightAware ADS-B
Thu 03:33:27 PM 42.3100 -107.2960 309° West 439 505 38,000  Level FlightAware ADS-B
Thu 03:34:03 PM 42.3500 -107.3610 310° West 439 505 38,000  Level FlightAware ADS-B
Thu 03:34:39 PM 42.3890 -107.4270 309° West 439 505 38,000  Level FlightAware ADS-B
Thu 03:35:15 PM 42.4280 -107.4920 309° West 439 505 38,000  Level FlightAware ADS-B
Thu 03:35:49 PM 42.4650 -107.5540 309° West 439 505 38,000  Level FlightAware ADS-B
Thu 03:37:04 PM 42.6711 -107.8742 309° West 444 511 38,000  Level Salt Lake Center
Thu 03:38:06 PM 42.7583 -108.0211 309° West 446 513 38,000  Level Salt Lake Center
Thu 03:39:08 PM 42.8342 -108.1508 309° West 451 519 38,000  Level Salt Lake Center
Thu 03:40:10 PM 42.9211 -108.2975 309° West 450 518 38,000  Level Salt Lake Center
Thu 03:41:12 PM 42.9956 -108.4242 309° West 448 516 38,000  Level Salt Lake Center
Thu 03:42:14 PM 43.0822 -108.5728 309° West 449 517 38,000  Level Salt Lake Center
Thu 03:43:16 PM 43.1561 -108.7000 309° West 448 516 38,000  Level Salt Lake Center
Thu 03:44:18 PM 43.2433 -108.8486 309° West 449 517 38,000  Level Salt Lake Center
Thu 03:45:20 PM 43.3164 -108.9778 308° West 448 516 38,000  Level Salt Lake Center
Thu 03:46:22 PM 43.4028 -109.1278 308° West 449 517 38,000  Level Salt Lake Center
Thu 03:47:24 PM 43.4772 -109.2561 309° West 449 517 38,000  Level Salt Lake Center
Thu 03:48:26 PM 43.5539 -109.3944 307° West 449 517 38,000  Level Salt Lake Center
Thu 03:49:28 PM 43.6394 -109.5453 308° West 447 514 38,000  Level Salt Lake Center
Thu 03:50:30 PM 43.7131 -109.6742 308° West 446 513 38,000  Level Salt Lake Center
Thu 03:51:32 PM 43.7986 -109.8261 308° West 449 517 38,000  Level Salt Lake Center
Thu 03:52:34 PM 43.8722 -109.9578 308° West 452 520 38,000  Level Salt Lake Center
Thu 03:53:37 PM 43.9583 -110.1125 308° West 454 522 38,000  Level Salt Lake Center
Thu 03:54:39 PM 44.0317 -110.2467 307° West 456 525 38,000  Level Salt Lake Center
Thu 03:55:41 PM 44.1181 -110.4028 308° West 457 526 38,000  Level Salt Lake Center
Thu 03:56:43 PM 44.1922 -110.5378 307° West 459 528 38,000  Level Salt Lake Center
Thu 03:57:45 PM 44.2764 -110.6969 306° West 458 527 38,000  Level Salt Lake Center
Thu 03:58:47 PM 44.3508 -110.8325 308° West 460 529 38,000  Level Salt Lake Center
Thu 03:59:49 PM 44.4358 -110.9897 307° West 456 525 38,000  Level Salt Lake Center
Thu 04:00:51 PM 44.5089 -111.1264 307° West 458 527 38,000  Level Salt Lake Center
Thu 04:01:53 PM 44.5942 -111.2842 307° West 459 528 38,000  Level Salt Lake Center
Thu 04:02:55 PM 44.6644 -111.4206 306° West 463 533 38,000  Level Salt Lake Center
Thu 04:03:57 PM 44.7478 -111.5794 306° West 460 529 38,000  Level Salt Lake Center
Thu 04:04:59 PM 44.8194 -111.7161 307° West 456 525 38,000  Level Salt Lake Center
Thu 04:06:01 PM 44.9039 -111.8775 306° West 458 527 38,000  Level Salt Lake Center
Thu 04:07:03 PM 44.9764 -112.0178 306° West 461 531 38,000  Level Salt Lake Center
Thu 04:08:05 PM 45.0603 -112.1800 306° West 459 528 38,000  Level Salt Lake Center
Thu 04:09:07 PM 45.1328 -112.3200 306° West 461 531 38,000  Level Salt Lake Center
Thu 04:10:10 PM 45.2158 -112.4853 306° West 461 531 38,000  Level Salt Lake Center
Thu 04:11:12 PM 45.2969 -112.6153 312° West 462 532 38,000  Level Salt Lake Center
Thu 04:12:14 PM 45.4056 -112.7572 317° Northwest 466 536 38,000  Level Salt Lake Center
Thu 04:13:16 PM 45.4992 -112.8833 317° Northwest 463 533 38,000  Level Salt Lake Center
Thu 04:14:18 PM 45.5942 -113.0106 317° Northwest 466 536 38,000  Level Salt Lake Center
Thu 04:15:20 PM 45.6883 -113.1367 317° Northwest 465 535 38,000  Level Salt Lake Center
Thu 04:16:22 PM 45.7819 -113.2636 317° Northwest 465 535 38,000  Level Salt Lake Center
Thu 04:17:24 PM 45.8750 -113.3917 316° Northwest 464 534 38,000  Level Salt Lake Center
Thu 04:18:26 PM 45.9697 -113.5189 317° Northwest 466 536 38,000  Level Salt Lake Center
Thu 04:19:28 PM 46.0656 -113.6500 317° Northwest 460 529 38,000  Level Salt Lake Center
Thu 04:20:30 PM 46.1578 -113.7764 317° Northwest 459 528 38,000  Level Salt Lake Center
Thu 04:21:32 PM 46.2689 -113.9308 316° Northwest 461 531 38,000  Level Salt Lake Center
Thu 04:22:34 PM 46.3619 -114.0639 315° West 469 540 38,000  Level Salt Lake Center
Thu 04:23:36 PM 46.4556 -114.1967 316° Northwest 470 541 38,000 -48 Level Salt Lake Center
Thu 04:24:38 PM 46.5497 -114.3303 316° Northwest 473 544 37,900  Descending Salt Lake Center
Thu 04:25:40 PM 46.6442 -114.4636 316° Northwest 472 543 38,000  Climbing Salt Lake Center
Thu 04:26:42 PM 46.7381 -114.5992 315° West 473 544 37,900 -48 Descending Salt Lake Center
Thu 04:27:45 PM 46.8508 -114.7600 316° Northwest 472 543 37,900 48 Level Salt Lake Center
Thu 04:28:47 PM 46.9439 -114.8936 316° Northwest 470 541 38,000  Climbing Salt Lake Center
Thu 04:29:49 PM 47.0372 -115.0283 315° West 470 541 37,900  Descending Salt Lake Center
Thu 04:30:51 PM 47.1300 -115.1644 315° West 472 543 38,000 48 Climbing Salt Lake Center
Thu 04:31:53 PM 47.2222 -115.2989 315° West 468 539 38,000 -48 Level Salt Lake Center
Thu 04:32:55 PM 47.3144 -115.4364 315° West 469 540 37,900  Descending Salt Lake Center
Thu 04:33:57 PM 47.4250 -115.6006 315° West 469 540 38,000 48 Climbing Salt Lake Center
Thu 04:34:59 PM 47.5233 -115.7283 319° Northwest 470 541 38,000  Level Salt Lake Center
Thu 04:36:01 PM 47.6258 -115.8489 322° Northwest 471 542 38,000  Level Salt Lake Center
Thu 04:37:03 PM 47.7281 -115.9717 321° Northwest 472 543 38,000 -48 Level Salt Lake Center
Thu 04:38:05 PM 47.8292 -116.0931 321° Northwest 469 540 37,900  Descending Salt Lake Center
Thu 04:39:07 PM 47.9336 -116.2217 320° Northwest 471 542 38,000  Climbing Salt Lake Center
Thu 04:40:09 PM 48.0339 -116.3442 321° Northwest 471 542 37,900 -43 Descending Salt Lake Center
Thu 04:41:26 PM 48.1753 -116.5183 321° Northwest 474 545 37,900  Level Seattle Center
Thu 04:42:27 PM 48.2753 -116.6419 321° Northwest 471 542 37,900  Level Seattle Center
Thu 04:43:28 PM 48.3758 -116.7658 321° Northwest 470 541 37,900 49 Level Seattle Center
Thu 04:44:29 PM 48.4775 -116.8931 320° Northwest 473 544 38,000 49 Climbing Seattle Center
Thu 04:45:31 PM 48.5783 -117.0231 320° Northwest 476 548 38,000  Level Seattle Center
Thu 04:51:10 PM 49.1600 -117.7700 320° Northwest 472 543 38,000  Level FlightAware ADS-B
Thu 04:51:45 PM 49.2200 -117.8480 320° Northwest 471 542 38,000  Level FlightAware ADS-B
Thu 04:52:20 PM 49.2740 -117.9190 319° Northwest 472 543 38,000  Level FlightAware ADS-B
Thu 04:52:55 PM 49.3360 -118.0000 320° Northwest 472 543 38,000  Level FlightAware ADS-B
Thu 04:53:35 PM 49.4030 -118.0890 319° Northwest 474 545 38,000  Level FlightAware ADS-B
Thu 04:54:10 PM 49.4620 -118.1670 319° Northwest 475 547 38,000  Level FlightAware ADS-B
Thu 04:54:50 PM 49.5240 -118.2490 319° Northwest 475 547 38,000  Level FlightAware ADS-B
Thu 04:55:20 PM 49.5770 -118.3200 319° Northwest 474 545 38,000  Level FlightAware ADS-B
Thu 04:55:55 PM 49.6350 -118.3980 319° Northwest 474 545 38,000  Level FlightAware ADS-B
Thu 04:56:40 PM 49.7090 -118.4970 319° Northwest 474 545 38,000  Level FlightAware ADS-B
Thu 04:57:15 PM 49.7680 -118.5760 319° Northwest 475 547 38,000  Level FlightAware ADS-B
Thu 04:57:55 PM 49.8310 -118.6610 319° Northwest 479 551 38,000  Level FlightAware ADS-B
Thu 04:58:31 PM 49.8870 -118.7380 318° Northwest 482 555 38,000  Level FlightAware ADS-B
Thu 04:59:05 PM 49.9500 -118.8230 319° Northwest 481 554 38,000  Level FlightAware ADS-B
Thu 04:59:40 PM 50.0050 -118.8990 318° Northwest 481 554 38,000  Level FlightAware ADS-B
Thu 05:00:15 PM 50.0600 -118.9740 319° Northwest 482 555 38,000  Level FlightAware ADS-B
Thu 05:00:50 PM 50.1210 -119.0570 319° Northwest 482 555 38,000  Level FlightAware ADS-B
Thu 05:01:25 PM 50.1850 -119.1460 318° Northwest 482 555 38,000  Level FlightAware ADS-B
Thu 05:02:00 PM 50.2420 -119.2260 318° Northwest 484 557 38,000  Level FlightAware ADS-B
Thu 05:02:35 PM 50.3020 -119.3080 319° Northwest 483 556 38,000  Level FlightAware ADS-B
Thu 05:03:10 PM 50.3580 -119.3870 318° Northwest 481 554 38,000  Level FlightAware ADS-B
Thu 05:03:45 PM 50.4170 -119.4700 318° Northwest 480 552 38,000  Level FlightAware ADS-B
Thu 05:04:20 PM 50.4740 -119.5490 319° Northwest 480 552 38,000  Level FlightAware ADS-B
Thu 05:04:55 PM 50.5330 -119.6320 318° Northwest 483 556 38,000  Level FlightAware ADS-B
Thu 05:05:34 PM 50.5980 -119.7250 318° Northwest 484 557 38,000  Level FlightAware ADS-B
Thu 05:06:06 PM 50.6510 -119.7990 318° Northwest 483 556 38,000  Level FlightAware ADS-B
Thu 05:06:42 PM 50.7120 -119.8860 318° Northwest 482 555 38,000  Level FlightAware ADS-B
Thu 05:07:16 PM 50.7680 -119.9660 318° Northwest 483 556 38,000  Level FlightAware ADS-B
Thu 05:07:52 PM 50.8260 -120.0500 318° Northwest 482 555 38,000  Level FlightAware ADS-B
Thu 05:08:26 PM 50.8810 -120.1300 317° Northwest 482 555 38,000  Level FlightAware ADS-B
Thu 05:09:02 PM 50.9410 -120.2160 318° Northwest 484 557 38,000  Level FlightAware ADS-B
Thu 05:09:34 PM 50.9940 -120.2920 318° Northwest 489 563 38,000  Level FlightAware ADS-B
Thu 05:10:11 PM 51.0540 -120.3790 318° Northwest 484 557 38,000  Level FlightAware ADS-B
Thu 05:10:48 PM 51.1160 -120.4700 317° Northwest 482 555 38,000  Level FlightAware ADS-B
Thu 05:11:24 PM 51.1760 -120.5580 317° Northwest 480 552 38,000  Level FlightAware ADS-B
Thu 05:11:55 PM 51.2140 -120.6210 314° West 476 548 38,000  Level FlightAware ADS-B
Thu 05:12:30 PM 51.2700 -120.7330 309° West 475 547 38,000  Level FlightAware ADS-B
Thu 05:13:08 PM 51.3210 -120.8360 308° West 480 552 38,000  Level FlightAware ADS-B
Thu 05:13:40 PM 51.3670 -120.9290 308° West 479 551 38,000  Level FlightAware ADS-B
Thu 05:14:16 PM 51.4150 -121.0280 308° West 481 554 38,000  Level FlightAware ADS-B
Thu 05:14:54 PM 51.4670 -121.1360 308° West 481 554 38,000  Level FlightAware ADS-B
Thu 05:15:27 PM 51.5110 -121.2270 308° West 481 554 38,000  Level FlightAware ADS-B
Thu 05:16:02 PM 51.5600 -121.3280 308° West 481 554 38,000  Level FlightAware ADS-B
Thu 05:16:36 PM 51.6050 -121.4220 308° West 481 554 38,000  Level FlightAware ADS-B
Thu 05:17:14 PM 51.6570 -121.5300 308° West 482 555 38,000  Level FlightAware ADS-B
Thu 05:17:46 PM 51.7000 -121.6210 307° West 482 555 38,000  Level FlightAware ADS-B
Thu 05:18:16 PM 51.7400 -121.7040 308° West 480 552 38,000  Level FlightAware ADS-B
Thu 05:18:58 PM 51.7970 -121.8240 308° West 479 551 38,000  Level FlightAware ADS-B
Thu 05:19:29 PM 51.8390 -121.9130 307° West 480 552 38,000  Level FlightAware ADS-B
Thu 05:20:05 PM 51.8870 -122.0160 307° West 481 554 38,000  Level FlightAware ADS-B
Thu 05:20:41 PM 51.9350 -122.1190 307° West 486 559 38,000  Level FlightAware ADS-B
Thu 05:21:17 PM 51.9840 -122.2240 307° West 488 562 38,000  Level FlightAware ADS-B
Thu 05:21:53 PM 52.0330 -122.3290 307° West 486 559 38,000  Level FlightAware ADS-B
Thu 05:22:25 PM 52.0760 -122.4220 307° West 487 560 38,000  Level FlightAware ADS-B
Thu 05:23:01 PM 52.1260 -122.5290 307° West 492 566 38,000  Level FlightAware ADS-B
Thu 05:23:35 PM 52.1720 -122.6260 308° West 486 559 38,000  Level FlightAware ADS-B
Thu 05:24:09 PM 52.2180 -122.7260 307° West 486 559 38,000  Level FlightAware ADS-B
Thu 05:24:49 PM 52.2720 -122.8420 307° West 487 560 38,000  Level FlightAware ADS-B
Thu 05:25:21 PM 52.3150 -122.9370 307° West 487 560 38,000  Level FlightAware ADS-B
Thu 05:25:57 PM 52.3640 -123.0430 307° West 485 558 38,000  Level FlightAware ADS-B
Thu 05:26:33 PM 52.4110 -123.1470 307° West 488 562 38,000  Level FlightAware ADS-B
Thu 05:27:05 PM 52.4550 -123.2440 307° West 493 567 38,000  Level FlightAware ADS-B
Thu 05:27:41 PM 52.5040 -123.3510 307° West 493 567 38,000  Level FlightAware ADS-B
Thu 05:28:11 PM 52.5450 -123.4420 307° West 496 571 38,000  Level FlightAware ADS-B
Thu 05:28:49 PM 52.5950 -123.5540 306° West 496 571 38,000  Level FlightAware ADS-B
Thu 05:29:26 PM 52.6460 -123.6680 306° West 496 571 38,000  Level FlightAware ADS-B
Thu 05:30:04 PM 52.6980 -123.7850 306° West 496 571 38,000  Level FlightAware ADS-B
Thu 05:30:38 PM 52.7450 -123.8900 307° West 496 571 38,000  Level FlightAware ADS-B
Thu 05:31:10 PM 52.7880 -123.9870 306° West 496 571 38,000  Level FlightAware ADS-B
Thu 05:31:54 PM 52.8460 -124.1200 306° West 500 575 38,000  Level FlightAware ADS-B
Thu 05:32:30 PM 52.8950 -124.2320 306° West 500 575 38,000  Level FlightAware ADS-B
Thu 05:33:06 PM 52.9440 -124.3440 306° West 499 574 38,000  Level FlightAware ADS-B
Thu 05:33:38 PM 52.9870 -124.4440 306° West 499 574 38,000  Level FlightAware ADS-B
Thu 05:34:10 PM 53.0310 -124.5440 306° West 504 580 38,000  Level FlightAware ADS-B
Thu 05:34:48 PM 53.0820 -124.6640 305° West 504 580 38,000  Level FlightAware ADS-B
Thu 05:35:24 PM 53.1300 -124.7770 305° West 506 582 38,000  Level FlightAware ADS-B
Thu 05:36:00 PM 53.1790 -124.8900 306° West 505 581 38,000  Level FlightAware ADS-B
Thu 05:36:32 PM 53.2220 -124.9930 305° West 505 581 38,000  Level FlightAware ADS-B
Thu 05:37:08 PM 53.2710 -125.1070 306° West 506 582 38,000  Level FlightAware ADS-B
Thu 05:37:44 PM 53.3200 -125.2240 305° West 508 585 38,000  Level FlightAware ADS-B
Thu 05:38:21 PM 53.3670 -125.3370 305° West 507 583 38,000  Level FlightAware ADS-B
Thu 05:38:52 PM 53.4110 -125.4420 305° West 505 581 38,000  Level FlightAware ADS-B
Thu 05:39:28 PM 53.4590 -125.5570 305° West 503 579 38,000  Level FlightAware ADS-B
Thu 05:40:06 PM 53.5080 -125.6760 305° West 505 581 38,000  Level FlightAware ADS-B
Thu 05:40:32 PM 53.5400 -125.7550 304° West 505 581 38,000  Level FlightAware ADS-B
Thu 05:41:14 PM 53.5980 -125.8950 305° West 506 582 38,000  Level FlightAware ADS-B
Thu 05:41:44 PM 53.6380 -125.9930 305° West 507 583 38,000  Level FlightAware ADS-B
Thu 05:42:24 PM 53.6910 -126.1240 304° West 504 580 38,000  Level FlightAware ADS-B
Thu 05:43:00 PM 53.7380 -126.2400 304° West 503 579 38,000  Level FlightAware ADS-B
Thu 05:43:32 PM 53.7800 -126.3430 305° West 502 578 38,000  Level FlightAware ADS-B
Thu 05:44:08 PM 53.8270 -126.4630 304° West 502 578 38,000  Level FlightAware ADS-B
Thu 05:44:44 PM 53.8730 -126.5780 304° West 503 579 38,000  Level FlightAware ADS-B
Thu 05:45:21 PM 53.9170 -126.6900 304° West 502 578 38,000  Level FlightAware ADS-B
Thu 05:45:54 PM 53.9630 -126.8060 304° West 503 579 38,000  Level FlightAware ADS-B
Thu 05:46:30 PM 54.0100 -126.9250 304° West 508 585 38,000  Level FlightAware ADS-B
Thu 05:47:06 PM 54.0570 -127.0450 304° West 510 587 38,000  Level FlightAware ADS-B
Thu 05:47:38 PM 54.0990 -127.1540 303° West 513 590 38,000  Level FlightAware ADS-B
Thu 05:48:10 PM 54.1410 -127.2600 304° West 518 596 38,000  Level FlightAware ADS-B
Thu 05:48:48 PM 54.1900 -127.3870 303° West 516 594 38,000  Level FlightAware ADS-B
Thu 05:49:24 PM 54.2370 -127.5090 303° West 514 592 38,000  Level FlightAware ADS-B
Thu 05:50:00 PM 54.2850 -127.6350 303° West 515 593 38,000  Level FlightAware ADS-B
Thu 05:50:37 PM 54.3310 -127.7560 303° West 516 594 38,000  Level FlightAware ADS-B
Thu 05:51:08 PM 54.3730 -127.8670 303° West 516 594 38,000  Level FlightAware ADS-B
Thu 05:51:41 PM 54.4140 -127.9760 303° West 516 594 38,000  Level FlightAware ADS-B
Thu 05:52:19 PM 54.4630 -128.1080 303° West 515 593 38,000  Level FlightAware ADS-B
Thu 05:53:03 PM 54.5160 -128.2500 303° West 515 593 38,000  Level FlightAware ADS-B
Thu 05:53:40 PM 54.5550 -128.3600 301° West 515 593 38,000  Level FlightAware ADS-B
Thu 05:54:12 PM 54.6080 -128.4990 303° West 513 590 38,000  Level FlightAware ADS-B
Thu 05:54:52 PM 54.6510 -128.6170 302° West 513 590 38,000  Level FlightAware ADS-B
Thu 05:55:28 PM 54.6900 -128.7240 302° West 513 590 38,000  Level FlightAware ADS-B
Thu 05:56:04 PM 54.7280 -128.8300 302° West 513 590 38,000  Level FlightAware ADS-B
Thu 05:56:41 PM 54.7680 -128.9400 302° West 513 590 38,000  Level FlightAware ADS-B
Thu 05:57:17 PM 54.8060 -129.0470 302° West 513 590 38,000  Level FlightAware ADS-B
Thu 05:57:53 PM 54.8440 -129.1540 302° West 513 590 38,000  Level FlightAware ADS-B
Thu 05:58:30 PM 54.8840 -129.2640 302° West 513 590 38,000  Level FlightAware ADS-B
Thu 05:59:06 PM 54.9220 -129.3710 302° West 513 590 38,000  Level FlightAware ADS-B
Thu 05:59:42 PM 54.9610 -129.4780 302° West 513 590 38,000  Level FlightAware ADS-B
Thu 06:00:18 PM 54.9990 -129.5850 302° West 513 590 38,000  Level FlightAware ADS-B
Thu 06:00:54 PM 55.0380 -129.6930 302° West 513 590 38,000  Level FlightAware ADS-B
Thu 06:01:30 PM 55.0760 -129.8000 302° West 513 590 38,000  Level FlightAware ADS-B
Thu 06:02:07 PM 55.1160 -129.9110 302° West 513 590 38,000  Level FlightAware ADS-B
Thu 06:02:44 PM 55.1550 -130.0220 302° West 513 590 38,000  Level FlightAware ADS-B
Thu 06:03:20 PM 55.1940 -130.1300 302° West 513 590 38,000  Level FlightAware ADS-B
Thu 06:03:56 PM 55.2320 -130.2380 302° West 513 590 38,000  Level FlightAware ADS-B
Thu 06:05:13 PM 55.4167 -130.8167 302° West 520 598 38,000  Level Anchorage Center
Thu 06:06:14 PM 55.4833 -131.0333 299° West 520 598 38,000  Level Anchorage Center
Thu 06:07:14 PM 55.5667 -131.2500 304° West 510 587 38,000  Level Anchorage Center
Thu 06:08:13 PM 55.6333 -131.4500 301° West 500 575 38,000  Level Anchorage Center
Thu 06:09:14 PM 55.7000 -131.6667 299° West 510 587 38,000  Level Anchorage Center
Thu 06:10:14 PM 55.7667 -131.8833 299° West 510 587 38,000  Level Anchorage Center
Thu 06:11:14 PM 55.8333 -132.1167 297° West 520 598 38,000  Level Anchorage Center
Thu 06:12:14 PM 55.9167 -132.3333 305° West 510 587 38,000  Level Anchorage Center
Thu 06:13:14 PM 55.9833 -132.5500 299° West 510 587 38,000  Level Anchorage Center
Thu 06:14:14 PM 56.0500 -132.7667 299° West 510 587 38,000  Level Anchorage Center
Thu 06:15:14 PM 56.1167 -133.0000 297° West 510 587 38,000  Level Anchorage Center
Thu 06:16:15 PM 56.1833 -133.2167 299° West 520 598 38,000  Level Anchorage Center
Thu 06:17:14 PM 56.2500 -133.4500 297° West 520 598 38,000  Level Anchorage Center
Thu 06:18:15 PM 56.3167 -133.6833 297° West 510 587 38,000  Level Anchorage Center
Thu 06:19:15 PM 56.3833 -133.9000 299° West 510 587 38,000  Level Anchorage Center
Thu 06:20:15 PM 56.4500 -134.1333 297° West 510 587 38,000  Level Anchorage Center
Thu 06:21:15 PM 56.5167 -134.3500 299° West 500 575 38,000  Level Anchorage Center
Thu 06:22:15 PM 56.5833 -134.5667 299° West 500 575 38,000  Level Anchorage Center
Thu 06:23:15 PM 56.6500 -134.8000 298° West 500 575 38,000  Level Anchorage Center
Thu 06:24:15 PM 56.7000 -135.0167 293° West 500 575 38,000  Level Anchorage Center
Thu 06:25:15 PM 56.7667 -135.2500 298° West 500 575 38,000  Level Anchorage Center
Thu 06:26:15 PM 56.8333 -135.4833 298° West 520 598 38,000  Level Anchorage Center
Thu 06:27:16 PM 56.8833 -135.7333 290° West 510 587 38,000  Level Anchorage Center
Thu 06:28:15 PM 56.9333 -135.9500 293° West 510 587 38,000  Level Anchorage Center
Thu 06:28:55 PM 56.9667 -136.2167 283° West 490 564 38,000  Level Vancouver Center
Thu 06:30:16 PM 57.0167 -136.4333 293° West 510 587 38,000  Level Anchorage Center
Thu 06:31:15 PM 57.0667 -136.6833 290° West 510 587 38,000  Level Anchorage Center
Thu 06:32:16 PM 57.1167 -136.9167 292° West 510 587 38,000  Level Anchorage Center
Thu 06:33:16 PM 57.1500 -137.1667 284° West 500 575 38,000  Level Anchorage Center
Thu 06:33:55 PM 57.1833 -137.3833 286° West 510 587 38,000  Level Vancouver Center
Thu 06:34:55 PM 57.2333 -137.6333 290° West 510 587 38,000  Level Vancouver Center
Thu 06:35:55 PM 57.2667 -137.8667 285° West 510 587 38,000  Level Vancouver Center
Thu 06:36:55 PM 57.3167 -138.1333 289° West 510 587 38,000  Level Vancouver Center
Thu 06:37:55 PM 57.3500 -138.3667 285° West 510 587 38,000  Level Vancouver Center
Thu 06:38:55 PM 57.4000 -138.6167 290° West 500 575 38,000  Level Vancouver Center
Thu 06:39:55 PM 57.4500 -138.8500 292° West 500 575 38,000  Level Vancouver Center
Thu 06:41:17 PM 57.5000 -139.1167 289° West 490 564 38,000  Level Anchorage Center
Thu 06:42:17 PM 57.5333 -139.3500 285° West 490 564 38,000  Level Anchorage Center
Thu 06:43:17 PM 57.5667 -139.6000 284° West 490 564 38,000  Level Anchorage Center
Thu 06:44:17 PM 57.6000 -139.8500 284° West 490 564 38,000  Level Anchorage Center
Thu 06:45:17 PM 57.6500 -140.1000 291° West 490 564 38,000  Level Anchorage Center
Thu 06:46:17 PM 57.6833 -140.3333 285° West 490 564 38,000  Level Anchorage Center
Thu 06:47:17 PM 57.7167 -140.5833 284° West 490 564 38,000  Level Anchorage Center
Thu 06:48:17 PM 57.7500 -140.8333 284° West 490 564 38,000  Level Anchorage Center
Thu 06:49:18 PM 57.7833 -141.0833 284° West 490 564 38,000  Level Anchorage Center
Thu 06:50:17 PM 57.8333 -141.3333 291° West 500 575 38,000  Level Anchorage Center
Thu 06:51:18 PM 57.8667 -141.5833 284° West 490 564 38,000  Level Anchorage Center
Thu 06:52:18 PM 57.9000 -141.8167 285° West 480 552 38,000  Level Anchorage Center
Thu 06:53:17 PM 57.9333 -142.0667 284° West 480 552 38,000  Level Anchorage Center
Thu 06:54:17 PM 57.9833 -142.3000 292° West 490 564 38,000  Level Anchorage Center
Thu 06:55:18 PM 58.0167 -142.5500 284° West 490 564 38,000  Level Anchorage Center
Thu 06:56:18 PM 58.0667 -142.8000 291° West 490 564 38,000  Level Anchorage Center
Thu 06:57:18 PM 58.1000 -143.0500 284° West 480 552 38,000  Level Anchorage Center
Thu 06:58:18 PM 58.1333 -143.3000 284° West 480 552 38,000  Level Anchorage Center
Thu 06:59:19 PM 58.1833 -143.5333 292° West 480 552 38,000  Level Anchorage Center
Thu 07:00:19 PM 58.2167 -143.7833 284° West 490 564 38,000  Level Anchorage Center
Thu 07:01:19 PM 58.2500 -144.0333 284° West 480 552 38,000  Level Anchorage Center
Thu 07:02:19 PM 58.2833 -144.2833 284° West 480 552 38,000  Level Anchorage Center
Thu 07:03:19 PM 58.3333 -144.5167 292° West 480 552 38,000  Level Anchorage Center
Thu 07:04:19 PM 58.3667 -144.7667 284° West 480 552 38,000  Level Anchorage Center
Thu 07:05:19 PM 58.4000 -145.0167 284° West 480 552 38,000  Level Anchorage Center
Thu 07:06:19 PM 58.4333 -145.2833 284° West 490 564 38,000  Level Anchorage Center
Thu 07:07:20 PM 58.4667 -145.5333 284° West 480 552 38,000  Level Anchorage Center
Thu 07:08:20 PM 58.5000 -145.7833 284° West 480 552 38,000  Level Anchorage Center
Thu 07:09:19 PM 58.5333 -146.0333 284° West 480 552 38,000  Level Anchorage Center
Thu 07:10:20 PM 58.5667 -146.2833 284° West 490 564 38,000  Level Anchorage Center
Thu 07:11:19 PM 58.6000 -146.5333 284° West 480 552 38,000  Level Anchorage Center
Thu 07:12:20 PM 58.6333 -146.8000 284° West 490 564 38,000  Level Anchorage Center
Thu 07:13:20 PM 58.6667 -147.0500 284° West 480 552 38,000  Level Anchorage Center
Thu 07:14:20 PM 58.7000 -147.3000 284° West 490 564 38,000  Level Anchorage Center
Thu 07:20:05 PM 58.8750 -148.7990 284° West 482 555 38,000  Level FlightAware ADS-B
Thu 07:20:39 PM 58.8910 -148.9440 282° West 483 556 38,000  Level FlightAware ADS-B
Thu 07:21:17 PM 58.9070 -149.0970 282° West 484 557 38,000  Level FlightAware ADS-B
Thu 07:21:55 PM 58.9240 -149.2550 282° West 482 555 38,000  Level FlightAware ADS-B
Thu 07:22:31 PM 58.9410 -149.4140 282° West 483 556 38,000  Level FlightAware ADS-B
Thu 07:23:05 PM 58.9550 -149.5560 281° West 483 556 38,000  Level FlightAware ADS-B
Thu 07:23:41 PM 58.9710 -149.7080 282° West 485 558 38,000  Level FlightAware ADS-B
Thu 07:24:15 PM 58.9850 -149.8530 281° West 485 558 38,000  Level FlightAware ADS-B
Thu 07:25:04 PM 59.0020 -150.0450 280° West 483 556 38,000  Level FlightAware ADS-B
Thu 07:25:40 PM 59.0130 -150.1770 279° West 483 556 38,000  Level FlightAware ADS-B
Thu 07:26:16 PM 59.0240 -150.3080 279° West 483 556 38,000  Level FlightAware ADS-B
Thu 07:26:53 PM 59.0350 -150.4430 279° West 483 556 38,000  Level FlightAware ADS-B
Thu 07:27:33 PM 59.0230 -150.6780 264° West 485 558 38,000  Level FlightAware ADS-B
Thu 07:28:09 PM 59.0270 -150.8110 273° West 485 558 38,000  Level FlightAware ADS-B
Thu 07:28:45 PM 59.0300 -150.9440 273° West 485 558 38,000  Level FlightAware ADS-B
Thu 07:29:20 PM 59.0400 -151.1730 275° West 486 559 38,000  Level FlightAware ADS-B
Thu 07:29:53 PM 59.0440 -151.3180 273° West 486 559 38,000  Level FlightAware ADS-B
Thu 07:30:29 PM 59.0490 -151.4740 274° West 485 558 38,000  Level FlightAware ADS-B
Thu 07:31:05 PM 59.0530 -151.6300 273° West 485 558 38,000 333 Level FlightAware ADS-B
Thu 07:31:41 PM 59.0570 -151.7870 273° West 485 558 38,400 794 Climbing FlightAware ADS-B
Thu 07:32:13 PM 59.0600 -151.9260 272° West 484 557 38,900 545 Climbing FlightAware ADS-B
Thu 07:32:58 PM 59.0640 -152.1040 273° West 483 556 39,100 148 Climbing FlightAware ADS-B
Thu 07:33:34 PM 59.0660 -152.2370 272° West 483 556 39,100 614 Level FlightAware ADS-B
Thu 07:34:26 PM 59.0720 -152.4840 273° West 485 558 40,000 621 Climbing FlightAware ADS-B
Thu 07:35:01 PM 59.0750 -152.6500 272° West 485 558 40,000  Level FlightAware ADS-B
Thu 07:35:46 PM 59.0790 -152.8350 272° West 485 558 40,000  Level FlightAware ADS-B
Thu 07:36:22 PM 59.0810 -152.9690 272° West 485 558 40,000  Level FlightAware ADS-B
Thu 07:37:01 PM 59.0840 -153.1750 272° West 486 559 40,000  Level FlightAware ADS-B
Thu 07:37:47 PM 59.0860 -153.3570 271° West 487 560 40,000  Level FlightAware ADS-B
Thu 07:38:23 PM 59.0880 -153.5270 271° West 487 560 40,000  Level FlightAware ADS-B
Thu 07:38:57 PM 59.0900 -153.6780 272° West 488 562 40,000  Level FlightAware ADS-B
Thu 07:39:40 PM 59.0910 -153.8420 271° West 489 563 40,000  Level FlightAware ADS-B
Thu 07:40:16 PM 59.0920 -153.9770 271° West 489 563 40,000  Level FlightAware ADS-B
Thu 07:40:50 PM 59.0930 -154.1040 271° West 489 563 40,000  Level FlightAware ADS-B
Thu 07:41:27 PM 59.0950 -154.2430 272° West 489 563 40,000  Level FlightAware ADS-B
Thu 07:42:03 PM 59.0960 -154.3770 271° West 489 563 40,000  Level FlightAware ADS-B
Thu 07:42:39 PM 59.0970 -154.5120 271° West 489 563 40,000  Level FlightAware ADS-B
Thu 07:43:15 PM 59.0980 -154.6470 271° West 489 563 40,000  Level FlightAware ADS-B
Thu 07:43:51 PM 59.0990 -154.7820 271° West 489 563 40,000  Level FlightAware ADS-B
Thu 07:44:27 PM 59.1010 -154.9160 272° West 489 563 40,000  Level FlightAware ADS-B
Thu 07:45:03 PM 59.1020 -155.0510 271° West 489 563 40,000  Level FlightAware ADS-B
Thu 07:45:41 PM 59.1030 -155.1940 271° West 489 563 40,000  Level FlightAware ADS-B
Thu 07:46:18 PM 59.1040 -155.3320 271° West 489 563 40,000  Level FlightAware ADS-B
Thu 07:46:54 PM 59.1060 -155.4670 272° West 489 563 40,000  Level FlightAware ADS-B
Thu 07:47:30 PM 59.1070 -155.6020 271° West 489 563 40,000  Level FlightAware ADS-B
Thu 07:48:06 PM 59.1080 -155.7370 271° West 489 563 40,000  Level FlightAware ADS-B
Thu 07:48:42 PM 59.1090 -155.8710 271° West 489 563 40,000  Level FlightAware ADS-B
Thu 07:49:23 PM 59.0833 -156.3833 271° West 480 552 40,000  Level Anchorage Center
Thu 07:50:23 PM 59.0833 -156.6500 270° West 490 564 40,000  Level Anchorage Center
Thu 07:51:23 PM 59.0833 -156.9167 270° West 480 552 40,000  Level Anchorage Center
Thu 07:52:24 PM 59.0667 -157.1833 263° West 490 564 40,000  Level Anchorage Center
Thu 07:53:23 PM 59.0667 -157.4333 270° West 480 552 40,000  Level Anchorage Center
Thu 07:54:23 PM 59.0667 -157.7000 270° West 480 552 40,000  Level Anchorage Center
Thu 07:55:23 PM 59.0500 -157.9667 263° West 490 564 40,000  Level Anchorage Center
Thu 07:56:24 PM 59.0500 -158.2333 270° West 480 552 40,000  Level Anchorage Center
Thu 07:57:24 PM 59.0333 -158.5000 263° West 490 564 40,000  Level Anchorage Center
Thu 07:58:24 PM 59.0333 -158.7667 270° West 480 552 40,000  Level Anchorage Center
Thu 07:59:24 PM 59.0167 -159.0333 263° West 480 552 40,000  Level Anchorage Center
Thu 08:00:24 PM 59.0167 -159.2833 270° West 480 552 40,000  Level Anchorage Center
Thu 08:01:24 PM 59.0000 -159.5500 263° West 480 552 40,000  Level Anchorage Center
Thu 08:02:24 PM 59.0000 -159.8167 270° West 490 564 40,000  Level Anchorage Center
Thu 08:03:24 PM 59.0000 -160.0833 270° West 480 552 40,000  Level Anchorage Center
Thu 08:04:24 PM 59.0000 -160.3500 270° West 490 564 40,000  Level Anchorage Center
Thu 08:05:24 PM 59.0000 -160.6167 270° West 490 564 40,000  Level Anchorage Center
Thu 08:06:24 PM 59.0000 -160.8833 270° West 490 564 40,000  Level Anchorage Center
Thu 08:07:24 PM 59.0000 -161.1500 270° West 490 564 40,000  Level Anchorage Center
Thu 08:08:24 PM 59.0000 -161.4167 270° West 490 564 40,000  Level Anchorage Center
Thu 08:09:24 PM 58.9833 -161.6667 263° West 490 564 40,000  Level Anchorage Center
Thu 08:10:25 PM 58.9833 -161.9333 270° West 490 564 40,000  Level Anchorage Center
Thu 08:11:25 PM 58.9833 -162.2500 270° West 490 564 40,000  Level Anchorage Center
Thu 08:12:25 PM 58.9833 -162.5167 270° West 490 564 40,000  Level Anchorage Center
Thu 08:13:25 PM 58.9833 -162.7333 270° West 500 575 40,000  Level Anchorage Center
Thu 08:14:25 PM 58.9667 -163.0000 263° West 490 564 40,000  Level Anchorage Center
Thu 08:15:25 PM 58.9667 -163.3167 270° West 490 564 40,000  Level Anchorage Center
Thu 08:16:25 PM 58.9667 -163.5833 270° West 490 564 40,000  Level Anchorage Center
Thu 08:17:26 PM 58.9500 -163.8667 264° West 490 564 40,000  Level Anchorage Center
Thu 08:18:26 PM 58.9500 -164.1333 270° West 490 564 40,000  Level Anchorage Center
Thu 08:19:26 PM 58.9500 -164.4000 270° West 490 564 40,000  Level Anchorage Center
Thu 08:20:26 PM 58.9333 -164.6667 263° West 490 564 40,000  Level Anchorage Center
Thu 08:21:26 PM 58.9333 -164.9333 270° West 500 575 40,000  Level Anchorage Center
Thu 08:22:26 PM 58.9167 -165.2000 263° West 490 564 40,000  Level Anchorage Center
Thu 08:23:32 PM 58.9000 -165.4667 263° West 500 575 40,000  Level Anchorage Center
Thu 08:24:31 PM 58.9000 -165.7333 270° West 490 564 40,000  Level Anchorage Center
Thu 08:25:31 PM 58.8833 -166.0000 263° West 500 575 40,000  Level Anchorage Center
Thu 08:26:31 PM 58.8667 -166.2667 263° West 500 575 40,000  Level Anchorage Center
Thu 08:27:31 PM 58.8500 -166.5333 263° West 500 575 40,000  Level Anchorage Center
Thu 08:28:32 PM 58.8167 -166.8000 257° West 490 564 40,000  Level Anchorage Center
Thu 08:29:31 PM 58.8000 -167.0667 263° West 500 575 40,000  Level Anchorage Center
Thu 08:30:32 PM 58.7833 -167.3333 263° West 500 575 40,000  Level Anchorage Center
Thu 08:31:32 PM 58.7500 -167.6000 257° West 490 564 40,000  Level Anchorage Center
Thu 08:32:32 PM 58.7333 -167.8667 263° West 510 587 40,000  Level Anchorage Center
Thu 08:33:32 PM 58.7000 -168.1333 257° West 500 575 40,000  Level Anchorage Center
Thu 08:34:32 PM 58.6667 -168.3833 256° West 500 575 40,000  Level Anchorage Center
Thu 08:35:32 PM 58.6333 -168.6333 256° West 480 552 40,000  Level Anchorage Center
Thu 08:36:32 PM 58.6167 -168.9333 264° West 510 587 40,000  Level Anchorage Center
Thu 08:37:32 PM 58.6000 -169.2000 263° West 500 575 40,000  Level Anchorage Center
Thu 08:38:32 PM 58.5667 -169.4500 256° West 500 575 40,000  Level Anchorage Center
Thu 08:39:32 PM 58.5333 -169.7167 257° West 510 587 40,000  Level Anchorage Center
Thu 08:40:32 PM 58.5000 -169.9833 257° West 510 587 40,000  Level Anchorage Center
Thu 08:41:32 PM 58.4667 -170.2333 256° West 490 564 40,000  Level Anchorage Center
Thu 08:42:32 PM 58.4500 -170.5167 264° West 510 587 40,000  Level Anchorage Center
Thu 08:43:32 PM 58.4167 -170.7667 256° West 500 575 40,000  Level Anchorage Center
Thu 08:45:00 PM 58.3631 -171.1226 258° West  Level FlightAware Approximate
Thu 08:46:34 PM 58.3167 -171.6000 256° West 510 587 40,000  Level Anchorage Center
Thu 08:52:00 PM 58.1146 -173.1086 255° West 510 587 40,000  Level FlightAware Transoceanic
Thu 08:53:00 PM 58.0793 -173.3583 255° West 510 587 40,000  Level FlightAware Transoceanic
Thu 08:54:00 PM 58.0434 -173.6075 255° West 510 587 40,000  Level FlightAware Transoceanic
Thu 08:55:00 PM 58.0070 -173.8562 254° West 510 587 40,000  Level FlightAware Transoceanic
Thu 08:56:00 PM 57.9701 -174.1045 254° West 510 587 40,000  Level FlightAware Transoceanic
Thu 08:56:10 PM 57.9833 -174.0833 254° West 509 586 40,000  Level Anchorage Center
Thu 08:57:00 PM 57.9328 -174.3522 254° West 510 587 40,000  Level FlightAware Transoceanic
Thu 08:58:00 PM 57.8950 -174.5994 254° West 510 587 40,000  Level FlightAware Transoceanic
Thu 08:59:00 PM 57.8567 -174.8460 254° West 510 587 40,000  Level FlightAware Transoceanic
Thu 09:00:00 PM 57.8179 -175.0922 253° West 510 587 40,000  Level FlightAware Transoceanic
Thu 09:01:00 PM 57.7787 -175.3378 253° West 510 587 40,000  Level FlightAware Transoceanic
Thu 09:02:00 PM 57.7451 -175.5735 253° West 509 586 40,000  Level FlightAware Transoceanic
Thu 09:03:00 PM 57.7037 -175.8200 252° West 509 586 40,000  Level FlightAware Transoceanic
Thu 09:04:00 PM 57.6618 -176.0659 252° West 509 586 40,000  Level FlightAware Transoceanic
Thu 09:05:00 PM 57.6195 -176.3111 252° West 509 586 40,000  Level FlightAware Transoceanic
Thu 09:05:47 PM 57.5833 -176.5000 253° West 503 579 40,000  Level Anchorage Center
Thu 09:06:00 PM 57.5766 -176.5559 252° West 509 586 40,000  Level FlightAware Transoceanic
Thu 09:07:00 PM 57.5333 -176.8000 245° Southwest 509 586 40,000  Level FlightAware Transoceanic
Thu 09:07:03 PM 57.5333 -176.8000 245° Southwest 507 583 40,000  Level Anchorage Center
Thu 09:08:00 PM 57.4770 -177.0236 245° Southwest 509 586 40,000  Level FlightAware Transoceanic
Thu 09:09:00 PM 57.4203 -177.2466 245° Southwest 509 586 40,000  Level FlightAware Transoceanic
Thu 09:10:00 PM 57.3631 -177.4688 244° Southwest 509 586 40,000  Level FlightAware Transoceanic
Thu 09:11:00 PM 57.3056 -177.6903 244° Southwest 509 586 40,000  Level FlightAware Transoceanic
Thu 09:12:00 PM 57.2533 -177.8900 244° Southwest 503 579 40,000  Level FlightAware Transoceanic
Thu 09:13:00 PM 57.1824 -178.1577 244° Southwest 507 583 40,000  Level FlightAware Transoceanic
Thu 09:14:00 PM 57.1225 -178.3815 244° Southwest 507 583 40,000  Level FlightAware Transoceanic
Thu 09:15:00 PM 57.0622 -178.6045 243° Southwest 507 583 40,000  Level FlightAware Transoceanic
Thu 09:15:26 PM 57.0333 -178.7500 243° Southwest 504 580 40,000  Level Anchorage Center
Thu 09:16:00 PM 57.0015 -178.8268 243° Southwest 507 583 40,000  Level FlightAware Transoceanic
Thu 09:17:00 PM 56.9404 -179.0484 243° Southwest 507 583 40,000  Level FlightAware Transoceanic
Thu 09:18:00 PM 56.8790 -179.2692 243° Southwest 507 583 40,000  Level FlightAware Transoceanic
Thu 09:19:00 PM 56.8171 -179.4893 243° Southwest 507 583 40,000  Level FlightAware Transoceanic
Thu 09:20:00 PM 56.7549 -179.7088 243° Southwest 507 583 40,000  Level FlightAware Transoceanic
Thu 09:21:00 PM 56.6662 179.9500 242° Southwest 504 580 40,000  Level FlightAware Transoceanic
Thu 09:22:00 PM 56.6037 179.7358 242° Southwest 504 580 40,000  Level FlightAware Transoceanic
Thu 09:23:00 PM 56.5408 179.5223 242° Southwest 504 580 40,000  Level FlightAware Transoceanic
Thu 09:24:00 PM 56.4776 179.3095 242° Southwest 504 580 40,000  Level FlightAware Transoceanic
Thu 09:25:00 PM 56.4140 179.0975 241° Southwest 504 580 40,000  Level FlightAware Transoceanic
Thu 09:25:26 PM 56.4000 179.0667 241° Southwest 505 581 40,000  Level Anchorage Center
Thu 09:26:00 PM 56.3501 178.8861 241° Southwest 504 580 40,000  Level FlightAware Transoceanic
Thu 09:27:00 PM 56.2858 178.6755 241° Southwest 504 580 40,000  Level FlightAware Transoceanic
Thu 09:28:00 PM 56.2211 178.4655 241° Southwest 504 580 40,000  Level FlightAware Transoceanic
Thu 09:29:00 PM 56.1561 178.2563 241° Southwest 504 580 40,000  Level FlightAware Transoceanic
Thu 09:30:00 PM 56.0907 178.0478 241° Southwest 504 580 40,000  Level FlightAware Transoceanic
Thu 09:30:00 PM 56.0667 177.9833 241° Southwest 500 575 40,000  Level Anchorage Center
Thu 09:31:00 PM 56.0134 177.8156 240° Southwest 505 581 40,000  Level FlightAware Transoceanic
Thu 09:32:00 PM 55.9477 177.6095 240° Southwest 505 581 40,000  Level FlightAware Transoceanic
Thu 09:33:00 PM 55.8817 177.4042 240° Southwest 505 581 40,000  Level FlightAware Transoceanic
Thu 09:33:15 PM 55.8333 177.2667 239° Southwest 530 610 40,000  Level Anchorage Center
Thu 09:34:00 PM 55.8153 177.1995 240° Southwest 505 581 40,000  Level FlightAware Transoceanic
Thu 09:34:15 PM 55.7667 177.0833 237° Southwest 500 575 40,000  Level Anchorage Center
Thu 09:35:00 PM 55.7487 176.9955 240° Southwest 505 581 40,000  Level FlightAware Transoceanic
Thu 09:35:15 PM 55.7000 176.8667 241° Southwest 490 564 40,000  Level Anchorage Center
Thu 09:36:00 PM 55.6566 176.7161 240° Southwest 500 575 40,000  Level FlightAware Transoceanic
Thu 09:36:16 PM 55.6333 176.6833 237° Southwest 490 564 40,000  Level Anchorage Center
Thu 09:37:00 PM 55.5870 176.5075 239° Southwest 500 575 40,000  Level FlightAware Transoceanic
Thu 09:37:15 PM 55.5667 176.4500 243° Southwest 500 575 40,000  Level Anchorage Center
Thu 09:38:00 PM 55.5171 176.2996 239° Southwest 500 575 40,000  Level FlightAware Transoceanic
Thu 09:38:16 PM 55.4833 176.2167 238° Southwest 500 575 40,000  Level Anchorage Center
Thu 09:39:15 PM 55.4167 176.0333 237° Southwest 500 575 40,000  Level Anchorage Center
Thu 09:40:16 PM 55.3500 175.8000 243° Southwest 500 575 40,000  Level Anchorage Center
Thu 09:41:16 PM 55.2833 175.6167 237° Southwest 500 575 40,000  Level Anchorage Center
Thu 09:42:16 PM 55.2000 175.4000 236° Southwest 500 575 40,000  Level Anchorage Center
Thu 09:43:16 PM 55.1333 175.2167 238° Southwest 490 564 40,000  Level Anchorage Center
Thu 09:44:16 PM 55.0667 174.9833 244° Southwest 500 575 40,000  Level Anchorage Center
Thu 09:45:16 PM 54.9833 174.7667 236° Southwest 500 575 40,000  Level Anchorage Center
Thu 09:46:16 PM 54.9167 174.6000 235° Southwest 500 575 40,000  Level Anchorage Center
Thu 09:47:16 PM 54.8333 174.3667 238° Southwest 490 564 40,000  Level Anchorage Center
Thu 09:48:16 PM 54.7667 174.2000 235° Southwest 500 575 40,000  Level Anchorage Center
Thu 09:49:16 PM 54.6833 173.9833 236° Southwest 490 564 40,000  Level Anchorage Center
Thu 09:50:16 PM 54.6333 173.8000 245° Southwest 500 575 40,000  Level Anchorage Center
Thu 09:51:16 PM 54.5500 173.5833 237° Southwest 490 564 40,000  Level Anchorage Center
Thu 09:52:16 PM 54.4833 173.4167 235° Southwest 480 552 40,000  Level Anchorage Center
Thu 09:53:17 PM 54.4000 173.2000 237° Southwest 500 575 40,000  Level Anchorage Center
Thu 09:54:17 PM 54.3167 172.9833 237° Southwest 510 587 40,000  Level Anchorage Center
Thu 09:55:17 PM 54.2500 172.8167 236° Southwest 500 575 40,000  Level Anchorage Center
Thu 09:56:17 PM 54.1667 172.6000 237° Southwest 490 564 40,000  Level Anchorage Center
Thu 09:57:17 PM 54.1000 172.4333 236° Southwest 490 564 40,000  Level Anchorage Center
Thu 09:58:17 PM 54.0167 172.2333 235° Southwest 490 564 40,000  Level Anchorage Center
Thu 09:59:17 PM 53.9333 172.0500 232° Southwest 510 587 40,000  Level Anchorage Center
Thu 10:00:17 PM 53.8500 171.8500 235° Southwest 500 575 40,000  Level Anchorage Center
Thu 10:02:17 PM 53.7000 171.4833 235° Southwest 500 575 40,000  Level Anchorage Center
Thu 10:03:17 PM 53.6167 171.2833 235° Southwest 490 564 40,000  Level Anchorage Center
Thu 10:05:17 PM 53.4500 170.9167 233° Southwest 470 541 40,000  Level Anchorage Center
Thu 10:06:17 PM 53.3833 170.7500 236° Southwest 500 575 40,000  Level Anchorage Center
Thu 10:07:17 PM 53.3000 170.5667 233° Southwest 480 552 40,000  Level Anchorage Center
Thu 10:08:17 PM 53.2167 170.4000 230° Southwest 500 575 40,000  Level Anchorage Center
Thu 10:09:17 PM 53.1333 170.2000 235° Southwest 490 564 40,000  Level Anchorage Center
Thu 10:10:18 PM 53.0500 170.0000 235° Southwest 500 575 40,000  Level Anchorage Center
Thu 10:12:18 PM 52.9000 169.6167 237° Southwest 510 587 40,000  Level Anchorage Center
Thu 10:13:17 PM 52.8500 169.4500 244° Southwest 500 575 40,000  Level Anchorage Center
Thu 10:14:18 PM 52.7667 169.2333 238° Southwest 490 564 40,000  Level Anchorage Center
Thu 10:15:18 PM 52.7167 169.0667 244° Southwest 490 564 40,000  Level Anchorage Center
Thu 10:16:18 PM 52.6333 168.8500 238° Southwest 490 564 40,000  Level Anchorage Center
Thu 10:17:18 PM 52.5667 168.6333 243° Southwest 500 575 40,000  Level Anchorage Center
Thu 10:18:18 PM 52.5000 168.4667 237° Southwest 490 564 40,000  Level Anchorage Center
Thu 10:19:18 PM 52.4333 168.2667 241° Southwest 480 552 40,000  Level Anchorage Center
Thu 10:20:18 PM 52.3667 168.1000 237° Southwest 490 564 40,000  Level Anchorage Center
Thu 10:21:18 PM 52.3000 167.8833 243° Southwest 490 564 40,000  Level Anchorage Center
Thu 10:22:18 PM 52.2333 167.7167 237° Southwest 490 564 40,000  Level Anchorage Center
Thu 10:23:18 PM 52.1667 167.5167 242° Southwest 480 552 40,000  Level Anchorage Center
Thu 10:26:00 PM 52.0504 167.2018 239° Southwest  Level FlightAware Approximate
Thu 10:32:14 PM 51.5500 165.8667 238° Southwest 488 562 40,000  Level Anchorage Center
Thu 10:33:00 PM 51.5632 165.9226 239° Southwest  Level FlightAware Approximate
Thu 10:33:59 PM 51.4333 165.5500 238° Southwest 486 559 40,000  Level Anchorage Center
Thu 10:34:00 PM 51.4925 165.7421 238° Southwest  Level FlightAware Approximate
Thu 10:35:00 PM 51.4215 165.5622 238° Southwest  Level FlightAware Approximate
Thu 10:36:00 PM 51.3515 165.3815 238° Southwest  Level FlightAware Approximate
Thu 10:37:00 PM 51.2814 165.2013 238° Southwest  Level FlightAware Approximate
Thu 10:38:00 PM 51.1218 164.7883 237° Southwest 488 562 40,000  Level FlightAware Transoceanic
Thu 10:39:00 PM 51.0495 164.6106 237° Southwest 488 562 40,000  Level FlightAware Transoceanic
Thu 10:40:00 PM 50.9975 164.4691 237° Southwest 486 559 40,000  Level FlightAware Transoceanic
Thu 10:40:30 PM 50.9500 164.3833 237° Southwest 485 558 40,000  Level Anchorage Center
Thu 10:41:00 PM 50.9239 164.2910 237° Southwest 486 559 40,000  Level FlightAware Transoceanic
Thu 10:41:50 PM 50.8500 164.1333 237° Southwest 482 555 40,000  Level Anchorage Center
Thu 10:42:00 PM 50.8500 164.1134 237° Southwest 486 559 40,000  Level FlightAware Transoceanic
Thu 10:43:00 PM 50.7759 163.9363 236° Southwest 486 559 40,000  Level FlightAware Transoceanic
Thu 10:44:00 PM 50.7015 163.7598 236° Southwest 486 559 40,000  Level FlightAware Transoceanic
Thu 10:45:00 PM 50.6268 163.5839 236° Southwest 486 559 40,000  Level FlightAware Transoceanic
Thu 10:46:00 PM 50.5147 163.3440 236° Southwest 485 558 40,000  Level FlightAware Transoceanic
Thu 10:47:00 PM 50.4413 163.1727 236° Southwest 485 558 40,000  Level FlightAware Transoceanic
Thu 10:48:00 PM 50.4013 163.0744 236° Southwest 482 555 40,000  Level FlightAware Transoceanic
Thu 10:49:00 PM 50.3256 162.8998 236° Southwest 482 555 40,000  Level FlightAware Transoceanic
Thu 10:50:00 PM 50.2496 162.7259 236° Southwest 482 555 40,000  Level FlightAware Transoceanic
Thu 10:51:00 PM 50.1734 162.5524 235° Southwest 482 555 40,000  Level FlightAware Transoceanic
Thu 10:51:26 PM 50.1500 162.4833 235° Southwest 486 559 40,000  Level Anchorage Center
Thu 10:52:00 PM 50.0969 162.3796 235° Southwest 482 555 40,000  Level FlightAware Transoceanic
Thu 10:53:00 PM 50.0202 162.2072 235° Southwest 482 555 40,000  Level FlightAware Transoceanic
Thu 10:54:00 PM 49.9432 162.0355 235° Southwest 482 555 40,000  Level FlightAware Transoceanic
Thu 10:55:00 PM 49.8660 161.8643 235° Southwest 482 555 40,000  Level FlightAware Transoceanic
Thu 10:56:00 PM 49.7885 161.6936 235° Southwest 482 555 40,000  Level FlightAware Transoceanic
Thu 10:57:00 PM 49.6963 161.4827 234° Southwest 486 559 40,000  Level FlightAware Transoceanic
Thu 10:58:00 PM 49.6199 161.3177 234° Southwest 486 559 40,000  Level FlightAware Transoceanic
Thu 10:59:00 PM 49.5432 161.1533 234° Southwest 486 559 40,000  Level FlightAware Transoceanic
Thu 10:59:52 PM 49.4833 161.0333 234° Southwest 499 574 40,000  Level Anchorage Center
Thu 11:00:00 PM 49.4663 160.9894 234° Southwest 486 559 40,000  Level FlightAware Transoceanic
Thu 11:01:00 PM 49.3891 160.8260 234° Southwest 486 559 40,000  Level FlightAware Transoceanic
Thu 11:01:02 PM 49.3833 160.8333 235° Southwest 499 574 40,000  Level Anchorage Center
Thu 11:02:00 PM 49.3118 160.6631 234° Southwest 486 559 40,000  Level FlightAware Transoceanic
Thu 11:03:00 PM 49.2342 160.5007 234° Southwest 486 559 40,000  Level FlightAware Transoceanic
Thu 11:04:00 PM 49.1563 160.3389 234° Southwest 486 559 40,000  Level FlightAware Transoceanic
Thu 11:05:00 PM 49.0783 160.1775 233° Southwest 486 559 40,000  Level FlightAware Transoceanic
Thu 11:06:00 PM 49.0000 160.0167 233° Southwest 499 574 40,000  Level FlightAware Transoceanic
Thu 11:07:00 PM 48.9177 159.8489 233° Southwest 499 574 40,000  Level FlightAware Transoceanic
Thu 11:08:00 PM 48.8352 159.6816 233° Southwest 499 574 40,000  Level FlightAware Transoceanic
Thu 11:09:00 PM 48.7524 159.5149 233° Southwest 499 574 40,000  Level FlightAware Transoceanic
Thu 11:10:00 PM 48.6694 159.3487 233° Southwest 499 574 40,000  Level FlightAware Transoceanic
Thu 11:11:00 PM 48.5862 159.1831 233° Southwest 499 574 40,000  Level FlightAware Transoceanic
Thu 11:12:00 PM 48.5027 159.0181 233° Southwest 499 574 40,000  Level FlightAware Transoceanic
Thu 11:13:00 PM 48.4189 158.8535 232° Southwest 499 574 40,000  Level FlightAware Transoceanic
Thu 11:14:00 PM 48.3350 158.6896 232° Southwest 499 574 40,000  Level FlightAware Transoceanic
Thu 11:15:00 PM 48.2508 158.5261 232° Southwest 499 574 40,000  Level FlightAware Transoceanic
Thu 11:16:00 PM 48.1664 158.3632 232° Southwest 499 574 40,000  Level FlightAware Transoceanic
Thu 11:17:00 PM 48.0817 158.2009 232° Southwest 499 574 40,000  Level FlightAware Transoceanic
Thu 11:18:00 PM 47.9968 158.0390 232° Southwest 499 574 40,000  Level FlightAware Transoceanic
Thu 11:19:00 PM 47.9118 157.8777 232° Southwest 499 574 40,000  Level FlightAware Transoceanic
Thu 11:20:00 PM 47.8264 157.7170 232° Southwest 499 574 40,000  Level FlightAware Transoceanic
Thu 11:21:00 PM 47.7409 157.5567 231° Southwest 499 574 40,000  Level FlightAware Transoceanic
Thu 11:22:00 PM 47.6551 157.3970 231° Southwest 499 574 40,000  Level FlightAware Transoceanic
Thu 11:23:00 PM 47.5691 157.2378 231° Southwest 499 574 40,000  Level FlightAware Transoceanic
Thu 11:24:00 PM 47.4829 157.0791 231° Southwest 499 574 40,000  Level FlightAware Transoceanic
Thu 11:25:00 PM 47.3965 156.9210 231° Southwest 499 574 40,000  Level FlightAware Transoceanic
Thu 11:26:00 PM 47.3098 156.7634 231° Southwest 499 574 40,000  Level FlightAware Transoceanic
Thu 11:27:00 PM 47.2229 156.6063 231° Southwest 499 574 40,000  Level FlightAware Transoceanic
Thu 11:28:00 PM 47.1359 156.4497 231° Southwest 499 574 40,000  Level FlightAware Transoceanic
Thu 11:29:00 PM 47.0486 156.2936 231° Southwest 499 574 40,000  Level FlightAware Transoceanic
Thu 11:30:00 PM 46.9611 156.1380 230° Southwest 499 574 40,000  Level FlightAware Transoceanic
Thu 11:31:00 PM 46.8733 155.9830 230° Southwest 499 574 40,000  Level FlightAware Transoceanic
Thu 11:32:00 PM 46.7854 155.8284 230° Southwest 499 574 40,000  Level FlightAware Transoceanic
Thu 11:33:00 PM 46.6973 155.6743 230° Southwest 499 574 40,000  Level FlightAware Transoceanic
Thu 11:34:00 PM 46.6090 155.5208 230° Southwest 499 574 40,000  Level FlightAware Transoceanic
Thu 11:35:00 PM 46.5204 155.3678 230° Southwest 499 574 40,000  Level FlightAware Transoceanic
Thu 11:36:00 PM 46.4317 155.2152 230° Southwest 499 574 40,000  Level FlightAware Transoceanic
Thu 11:37:00 PM 46.3427 155.0631 230° Southwest 499 574 40,000  Level FlightAware Transoceanic
Thu 11:38:00 PM 46.2536 154.9116 230° Southwest 499 574 40,000  Level FlightAware Transoceanic
Thu 11:39:00 PM 46.1642 154.7605 229° Southwest 499 574 40,000  Level FlightAware Transoceanic
Thu 11:40:00 PM 46.0747 154.6099 229° Southwest 499 574 40,000  Level FlightAware Transoceanic
Thu 11:41:00 PM 45.9850 154.4599 229° Southwest 499 574 40,000  Level FlightAware Transoceanic
Thu 11:42:00 PM 45.8950 154.3103 229° Southwest 499 574 40,000  Level FlightAware Transoceanic
Thu 11:43:00 PM 45.8049 154.1611 229° Southwest 499 574 40,000  Level FlightAware Transoceanic
Thu 11:44:00 PM 45.7146 154.0125 229° Southwest 499 574 40,000  Level FlightAware Transoceanic
Thu 11:45:00 PM 45.6240 153.8643 229° Southwest 499 574 40,000  Level FlightAware Transoceanic
Thu 11:46:00 PM 45.5283 153.7326 224° Southwest  Level FlightAware Approximate
Thu 11:47:00 PM 45.4323 153.6012 224° Southwest  Level FlightAware Approximate
Thu 11:48:00 PM 45.4424 153.5954 229° Southwest  Level FlightAware Approximate
Thu 11:49:00 PM 45.3548 153.4529 229° Southwest  Level FlightAware Approximate
Thu 11:50:00 PM 45.2670 153.3109 229° Southwest  Level FlightAware Approximate
Thu 11:51:00 PM 45.1791 153.1693 229° Southwest  Level FlightAware Approximate
Thu 11:52:00 PM 45.0909 153.0282 229° Southwest  Level FlightAware Approximate
Thu 11:53:00 PM 45.0026 152.8875 228° Southwest  Level FlightAware Approximate
Thu 11:54:00 PM 44.9131 152.7485 228° Southwest  Level FlightAware Approximate
Thu 11:55:00 PM 44.8233 152.6100 228° Southwest  Level FlightAware Approximate
Thu 11:56:00 PM 44.7334 152.4720 228° Southwest  Level FlightAware Approximate
Thu 11:57:00 PM 44.6434 152.3344 227° Southwest  Level FlightAware Approximate
Thu 11:58:00 PM 44.5531 152.1972 227° Southwest  Level FlightAware Approximate
Thu 11:59:00 PM 44.4627 152.0605 227° Southwest  Level FlightAware Approximate
Fri 12:00:00 AM 44.3722 151.9241 227° Southwest  Level FlightAware Approximate
Fri 12:01:00 AM 44.2815 151.7882 227° Southwest  Level FlightAware Approximate
Fri 12:02:00 AM 44.1906 151.6527 227° Southwest  Level FlightAware Approximate
Fri 12:03:00 AM 44.0995 151.5176 227° Southwest  Level FlightAware Approximate
Fri 12:04:00 AM 44.0083 151.3830 227° Southwest  Level FlightAware Approximate
Fri 12:05:00 AM 43.9170 151.2487 227° Southwest  Level FlightAware Approximate
Fri 12:06:00 AM 43.8255 151.1149 227° Southwest  Level FlightAware Approximate
Fri 12:07:00 AM 43.7338 150.9814 226° Southwest  Level FlightAware Approximate
Fri 12:08:00 AM 43.6420 150.8484 226° Southwest  Level FlightAware Approximate
Fri 12:09:00 AM 43.5500 150.7158 226° Southwest  Level FlightAware Approximate
Fri 12:10:00 AM 43.4579 150.5836 226° Southwest  Level FlightAware Approximate
Fri 12:11:00 AM 43.3656 150.4518 226° Southwest  Level FlightAware Approximate
Fri 12:12:00 AM 43.2732 150.3204 226° Southwest  Level FlightAware Approximate
Fri 12:13:00 AM 43.1806 150.1894 226° Southwest  Level FlightAware Approximate
Fri 12:13:47 AM 42.9210 149.8190 226° Southwest 484 557 40,000  Level FlightAware ADS-B
Fri 12:14:00 AM 43.0879 150.0588 226° Southwest  Level FlightAware Approximate
Fri 12:14:27 AM 42.8590 149.7330 225° Southwest 483 556 40,000  Level FlightAware ADS-B
Fri 12:15:00 AM 42.8150 149.6720 225° Southwest 483 556 40,000  Level FlightAware ADS-B
Fri 12:15:52 AM 42.7340 149.5600 225° Southwest 481 554 40,000  Level FlightAware ADS-B
Fri 12:16:27 AM 42.6710 149.4730 225° Southwest 480 552 40,000  Level FlightAware ADS-B
Fri 12:16:57 AM 42.6260 149.4110 225° Southwest 480 552 40,000  Level FlightAware ADS-B
Fri 12:17:48 AM 42.5540 149.3130 225° Southwest 481 554 40,000  Level FlightAware ADS-B
Fri 12:18:22 AM 42.5090 149.2510 225° Southwest 481 554 40,000  Level FlightAware ADS-B
Fri 12:18:58 AM 42.4610 149.1860 225° Southwest 481 554 40,000  Level FlightAware ADS-B
Fri 12:19:34 AM 42.4130 149.1210 225° Southwest 481 554 40,000  Level FlightAware ADS-B
Fri 12:20:10 AM 42.3640 149.0550 225° Southwest 481 554 40,000  Level FlightAware ADS-B
Fri 12:20:54 AM 42.2610 148.9130 226° Southwest 478 550 40,000  Level FlightAware ADS-B
Fri 12:21:33 AM 42.1940 148.8230 225° Southwest 475 547 40,000  Level FlightAware ADS-B
Fri 12:22:08 AM 42.1400 148.7500 225° Southwest 476 548 40,000  Level FlightAware ADS-B
Fri 12:22:38 AM 42.0970 148.6930 225° Southwest 477 549 40,000  Level FlightAware ADS-B
Fri 12:23:23 AM 42.0230 148.5940 225° Southwest 475 547 40,000  Level FlightAware ADS-B
Fri 12:24:03 AM 41.9590 148.5090 225° Southwest 473 544 40,000  Level FlightAware ADS-B
Fri 12:24:38 AM 41.9070 148.4390 225° Southwest 472 543 40,000  Level FlightAware ADS-B
Fri 12:25:35 AM 41.8280 148.3350 224° Southwest 471 542 40,000  Level FlightAware ADS-B
Fri 12:26:14 AM 41.7630 148.2480 225° Southwest 473 544 40,000  Level FlightAware ADS-B
Fri 12:27:03 AM 41.6800 148.1400 224° Southwest 473 544 40,000  Level FlightAware ADS-B
Fri 12:27:47 AM 41.6110 148.0510 224° Southwest 475 547 40,000  Level FlightAware ADS-B
Fri 12:28:27 AM 41.5500 147.9730 224° Southwest 475 547 40,000  Level FlightAware ADS-B
Fri 12:29:00 AM 41.5010 147.9100 224° Southwest 475 547 40,000  Level FlightAware ADS-B
Fri 12:29:32 AM 41.4480 147.8430 223° Southwest 475 547 40,000  Level FlightAware ADS-B
Fri 12:30:12 AM 41.3870 147.7660 223° Southwest 473 544 40,000  Level FlightAware ADS-B
Fri 12:30:47 AM 41.3330 147.6950 225° Southwest 471 542 40,000  Level FlightAware ADS-B
Fri 12:31:22 AM 41.2710 147.6170 223° Southwest 472 543 40,000  Level FlightAware ADS-B
Fri 12:32:02 AM 41.2090 147.5380 224° Southwest 471 542 40,000  Level FlightAware ADS-B
Fri 12:32:37 AM 41.1570 147.4730 223° Southwest 470 541 40,000  Level FlightAware ADS-B
Fri 12:33:22 AM 41.0920 147.3920 223° Southwest 471 542 40,000  Level FlightAware ADS-B
Fri 12:34:02 AM 41.0260 147.3080 224° Southwest 469 540 40,000  Level FlightAware ADS-B
Fri 12:34:38 AM 40.9770 147.2480 223° Southwest 469 540 40,000  Level FlightAware ADS-B
Fri 12:35:10 AM 40.9120 147.1660 224° Southwest 469 540 40,000  Level FlightAware ADS-B
Fri 12:35:50 AM 40.8550 147.0950 223° Southwest 469 540 40,000  Level FlightAware ADS-B
Fri 12:36:20 AM 40.8080 147.0360 224° Southwest 466 536 40,000  Level FlightAware ADS-B
Fri 12:36:55 AM 40.7490 146.9630 223° Southwest 466 536 40,000  Level FlightAware ADS-B
Fri 12:37:35 AM 40.6840 146.8820 223° Southwest 466 536 40,000  Level FlightAware ADS-B
Fri 12:38:15 AM 40.6230 146.8070 223° Southwest 466 536 40,000  Level FlightAware ADS-B
Fri 12:38:50 AM 40.5720 146.7440 223° Southwest 466 536 40,000  Level FlightAware ADS-B
Fri 12:39:30 AM 40.5100 146.6680 223° Southwest 466 536 40,000  Level FlightAware ADS-B
Fri 12:40:05 AM 40.4480 146.5920 223° Southwest 464 534 40,000  Level FlightAware ADS-B
Fri 12:40:40 AM 40.3930 146.5250 223° Southwest 464 534 40,000  Level FlightAware ADS-B
Fri 12:41:23 AM 40.3370 146.4560 223° Southwest 464 534 40,000  Level FlightAware ADS-B
Fri 12:41:58 AM 40.2700 146.3740 223° Southwest 462 532 40,000  Level FlightAware ADS-B
Fri 12:42:33 AM 40.2160 146.3090 223° Southwest 464 534 40,000  Level FlightAware ADS-B
Fri 12:43:08 AM 40.1590 146.2400 223° Southwest 464 534 40,000  Level FlightAware ADS-B
Fri 12:43:48 AM 40.1060 146.1750 223° Southwest 464 534 40,000  Level FlightAware ADS-B
Fri 12:44:27 AM 40.0390 146.0960 222° Southwest 464 534 40,000  Level FlightAware ADS-B
Fri 12:45:12 AM 39.9630 146.0050 223° Southwest 463 533 40,000  Level FlightAware ADS-B
Fri 12:45:52 AM 39.8980 145.9260 223° Southwest 464 534 40,000  Level FlightAware ADS-B
Fri 12:46:25 AM 39.8530 145.8730 222° Southwest 465 535 40,000  Level FlightAware ADS-B
Fri 12:47:01 AM 39.8050 145.8140 223° Southwest 465 535 40,000  Level FlightAware ADS-B
Fri 12:47:37 AM 39.7410 145.7380 222° Southwest 466 536 40,000  Level FlightAware ADS-B
Fri 12:48:15 AM 39.6700 145.6560 222° Southwest 359 413 40,000  Level FlightAware ADS-B
Fri 12:48:51 AM 39.6100 145.5840 223° Southwest 476 548 40,000  Level FlightAware ADS-B
Fri 12:49:27 AM 39.5490 145.5130 222° Southwest 466 536 40,000  Level FlightAware ADS-B
Fri 12:50:06 AM 39.4970 145.4500 223° Southwest 466 536 40,000  Level FlightAware ADS-B
Fri 12:50:45 AM 39.4220 145.3630 222° Southwest 478 550 40,000  Level FlightAware ADS-B
Fri 12:51:20 AM 39.3640 145.2960 222° Southwest 479 551 40,000  Level FlightAware ADS-B
Fri 12:51:50 AM 39.3150 145.2380 222° Southwest 479 551 40,000  Level FlightAware ADS-B
Fri 12:52:26 AM 39.2630 145.1770 222° Southwest 479 551 40,000  Level FlightAware ADS-B
Fri 12:53:05 AM 39.1930 145.0960 222° Southwest 479 551 40,000  Level FlightAware ADS-B
Fri 12:53:41 AM 39.1360 145.0300 222° Southwest 480 552 40,000  Level FlightAware ADS-B
Fri 12:54:16 AM 39.0870 144.9730 222° Southwest 480 552 40,000  Level FlightAware ADS-B
Fri 12:54:53 AM 39.0350 144.9120 222° Southwest 480 552 40,000  Level FlightAware ADS-B
Fri 12:55:30 AM 38.9560 144.8220 222° Southwest 479 551 40,000  Level FlightAware ADS-B
Fri 12:56:06 AM 38.8980 144.7550 222° Southwest 479 551 40,000  Level FlightAware ADS-B
Fri 12:56:46 AM 38.8310 144.6780 222° Southwest 479 551 40,000  Level FlightAware ADS-B
Fri 12:57:25 AM 38.7610 144.5980 222° Southwest 480 552 40,000  Level FlightAware ADS-B
Fri 12:57:56 AM 38.7170 144.5490 221° Southwest 480 552 40,000  Level FlightAware ADS-B
Fri 12:58:45 AM 38.6290 144.4480 222° Southwest 481 554 40,000  Level FlightAware ADS-B
Fri 12:59:26 AM 38.5660 144.3760 222° Southwest 480 552 40,000  Level FlightAware ADS-B
Fri 01:00:05 AM 38.4970 144.2990 221° Southwest 481 554 40,000  Level FlightAware ADS-B
Fri 01:00:35 AM 38.4480 144.2440 221° Southwest 474 545 40,000  Level FlightAware ADS-B
Fri 01:01:10 AM 38.3890 144.1770 222° Southwest 474 545 40,000  Level FlightAware ADS-B
Fri 01:01:50 AM 38.3230 144.1030 221° Southwest 474 545 40,000  Level FlightAware ADS-B
Fri 01:02:25 AM 38.2650 144.0380 221° Southwest 475 547 40,000  Level FlightAware ADS-B
Fri 01:02:55 AM 38.2130 143.9830 220° Southwest 483 556 40,000  Level FlightAware ADS-B
Fri 01:03:31 AM 38.1480 143.9270 214° Southwest 488 562 40,000  Level FlightAware ADS-B
Fri 01:04:10 AM 38.0700 143.8670 211° Southwest 489 563 40,000  Level FlightAware ADS-B
Fri 01:04:40 AM 38.0160 143.8260 211° Southwest 489 563 40,000  Level FlightAware ADS-B
Fri 01:05:15 AM 37.9450 143.7710 211° Southwest 491 565 40,000  Level FlightAware ADS-B
Fri 01:05:55 AM 37.8680 143.7120 211° Southwest 491 565 40,000  Level FlightAware ADS-B
Fri 01:06:25 AM 37.8080 143.6670 211° Southwest 490 564 40,000  Level FlightAware ADS-B
Fri 01:07:05 AM 37.7370 143.6120 211° Southwest 480 552 40,000  Level FlightAware ADS-B
Fri 01:07:35 AM 37.6740 143.5610 213° Southwest 480 552 40,000  Level FlightAware ADS-B
Fri 01:08:10 AM 37.6090 143.5090 212° Southwest 482 555 40,000  Level FlightAware ADS-B
Fri 01:08:45 AM 37.5420 143.4540 213° Southwest 480 552 40,000  Level FlightAware ADS-B
Fri 01:09:20 AM 37.4750 143.4010 212° Southwest 481 554 40,000  Level FlightAware ADS-B
Fri 01:10:00 AM 37.3990 143.3410 212° Southwest 481 554 40,000  Level FlightAware ADS-B
Fri 01:10:35 AM 37.3310 143.2880 212° Southwest 482 555 40,000  Level FlightAware ADS-B
Fri 01:11:10 AM 37.2640 143.2340 213° Southwest 482 555 40,000  Level FlightAware ADS-B
Fri 01:11:40 AM 37.2070 143.1890 212° Southwest 490 564 40,000  Level FlightAware ADS-B
Fri 01:12:20 AM 37.1310 143.1300 212° Southwest 490 564 40,000  Level FlightAware ADS-B
Fri 01:12:50 AM 37.0750 143.0860 212° Southwest 490 564 40,000  Level FlightAware ADS-B
Fri 01:13:25 AM 37.0050 143.0310 212° Southwest 491 565 40,000  Level FlightAware ADS-B
Fri 01:14:05 AM 36.9280 142.9700 212° Southwest 489 563 40,000  Level FlightAware ADS-B
Fri 01:14:41 AM 36.8610 142.9190 211° Southwest 489 563 40,000  Level FlightAware ADS-B
Fri 01:15:25 AM 36.7750 142.8520 212° Southwest 489 563 40,000  Level FlightAware ADS-B
Fri 01:16:05 AM 36.6980 142.7910 212° Southwest 491 565 40,000  Level FlightAware ADS-B
Fri 01:16:35 AM 36.6400 142.7460 212° Southwest 491 565 40,000  Level FlightAware ADS-B
Fri 01:17:16 AM 36.5640 142.6870 212° Southwest 490 564 40,000 -375 Level FlightAware ADS-B
Fri 01:17:55 AM 36.4920 142.6210 216° Southwest 474 545 39,500 -1,459 Descending FlightAware ADS-B
Fri 01:18:30 AM 36.4290 142.5620 217° Southwest 473 544 38,200 -2,314 Descending FlightAware ADS-B
Fri 01:19:05 AM 36.3660 142.5030 217° Southwest 484 557 36,800 -2,560 Descending FlightAware ADS-B
Fri 01:19:45 AM 36.2930 142.4340 217° Southwest 507 583 35,000 -3,280 Descending FlightAware ADS-B
Fri 01:20:20 AM 36.2280 142.3730 217° Southwest 506 582 32,700 -3,943 Descending FlightAware ADS-B
Fri 01:20:55 AM 36.1650 142.3130 218° Southwest 484 557 30,400 -3,857 Descending FlightAware ADS-B
Fri 01:21:30 AM 36.1040 142.2570 217° Southwest 463 533 28,200 -3,667 Descending FlightAware ADS-B
Fri 01:22:07 AM 36.0380 142.1960 217° Southwest 449 517 26,000 -3,231 Descending FlightAware ADS-B
Fri 01:22:22 AM 36.0160 142.1710 223° Southwest 432 497 25,400 -1,867 Descending FlightAware ADS-B
Fri 01:22:52 AM 35.9890 142.1070 242° Southwest 427 491 24,600 -1,629 Descending FlightAware ADS-B
Fri 01:23:32 AM 35.9780 142.0150 262° West 418 481 23,500 -1,775 Descending FlightAware ADS-B
Fri 01:24:03 AM 35.9700 141.9390 263° West 417 480 22,500 -2,000 Descending FlightAware ADS-B
Fri 01:24:38 AM 35.9610 141.8560 262° West 409 471 21,300 -1,971 Descending FlightAware ADS-B
Fri 01:25:13 AM 35.9520 141.7760 262° West 401 461 20,200 -1,890 Descending FlightAware ADS-B
Fri 01:25:51 AM 35.9440 141.6970 263° West 394 453 19,000 -2,000 Descending FlightAware ADS-B
Fri 01:26:25 AM 35.9350 141.6160 262° West 386 444 17,800 -2,000 Descending FlightAware ADS-B
Fri 01:27:00 AM 35.9260 141.5390 262° West 383 441 16,700 -1,971 Descending FlightAware ADS-B
Fri 01:27:35 AM 35.9180 141.4650 262° West 378 435 15,500 -1,971 Descending FlightAware ADS-B
Fri 01:28:10 AM 35.9100 141.3900 263° West 373 429 14,400 -1,886 Descending FlightAware ADS-B
Fri 01:28:45 AM 35.9020 141.3170 262° West 369 425 13,300 -1,800 Descending FlightAware ADS-B
Fri 01:29:20 AM 35.8950 141.2440 263° West 362 417 12,300 -1,714 Descending FlightAware ADS-B
Fri 01:29:55 AM 35.8890 141.1730 264° West 361 415 11,300 -1,457 Descending FlightAware ADS-B
Fri 01:30:30 AM 35.8820 141.1000 263° West 360 414 10,600 -845 Descending FlightAware ADS-B
Fri 01:31:06 AM 35.8760 141.0290 264° West 340 391 10,300 -257 Descending FlightAware ADS-B
Fri 01:31:40 AM 35.8710 140.9660 264° West 305 351 10,300 -333 Level FlightAware ADS-B
Fri 01:32:00 AM 35.8690 140.9340 266° West 284 327 10,000 -2,133 Descending FlightAware ADS-B
Fri 01:32:25 AM 35.8660 140.8960 264° West 288 331 8,700 -2,933 Descending FlightAware ADS-B
Fri 01:32:45 AM 35.8630 140.8600 264° West 284 327 7,800 -2,195 Descending FlightAware ADS-B
Fri 01:33:06 AM 35.8600 140.8260 264° West 287 330 7,200 -1,024 Descending FlightAware ADS-B
Fri 01:33:26 AM 35.8570 140.7950 263° West 284 327 7,100 -154 Descending FlightAware ADS-B
Fri 01:33:45 AM 35.8550 140.7640 265° West 284 327 7,100  Level FlightAware ADS-B
Fri 01:34:00 AM 35.8530 140.7390 264° West 274 315 7,100  Level FlightAware ADS-B
Fri 01:34:22 AM 35.8500 140.7080 263° West 258 297 7,100  Level FlightAware ADS-B
Fri 01:34:36 AM 35.8490 140.6870 267° West 250 288 7,100  Level FlightAware ADS-B
Fri 01:34:45 AM 35.8510 140.6740 281° West 248 285 7,100  Level FlightAware ADS-B
Fri 01:34:50 AM 35.8530 140.6690 296° West 248 285 7,100  Level FlightAware ADS-B
Fri 01:35:05 AM 35.8630 140.6520 306° West 249 287 7,100  Level FlightAware ADS-B
Fri 01:35:25 AM 35.8800 140.6290 312° West 244 281 7,100  Level FlightAware ADS-B
Fri 01:35:45 AM 35.8960 140.6090 315° West 244 281 7,100  Level FlightAware ADS-B
Fri 01:36:05 AM 35.9120 140.5890 315° West 244 281 7,100  Level FlightAware ADS-B
Fri 01:36:20 AM 35.9230 140.5750 314° West 244 281 7,100  Level FlightAware ADS-B
Fri 01:36:44 AM 35.9440 140.5480 314° West 248 285 7,100  Level FlightAware ADS-B
Fri 01:37:05 AM 35.9610 140.5260 314° West 247 284 7,100  Level FlightAware ADS-B
Fri 01:37:13 AM 35.9660 140.5180 308° West 247 284 7,100  Level FlightAware ADS-B
Fri 01:37:33 AM 35.9760 140.4930 296° West 242 278 7,100  Level FlightAware ADS-B
Fri 01:37:49 AM 35.9840 140.4720 295° West 240 276 7,100 -439 Level FlightAware ADS-B
Fri 01:38:14 AM 35.9960 140.4410 296° West 239 275 6,800 -894 Descending FlightAware ADS-B
Fri 01:38:36 AM 36.0050 140.4140 292° West 237 273 6,400 -1,000 Descending FlightAware ADS-B
Fri 01:38:44 AM 36.0060 140.4030 276° West 235 270 6,300 -643 Descending FlightAware ADS-B
Fri 01:39:04 AM 36.0050 140.3760 267° West 232 267 6,100 -300 Descending FlightAware ADS-B
Fri 01:39:24 AM 36.0030 140.3500 265° West 232 267 6,100  Level FlightAware ADS-B
Fri 01:39:32 AM 36.0010 140.3390 257° West 230 265 6,100 -300 Level FlightAware ADS-B
Fri 01:39:44 AM 35.9970 140.3240 252° West 226 260 6,000 -1,167 Descending FlightAware ADS-B
Fri 01:40:08 AM 35.9870 140.2970 245° Southwest 225 259 5,400 -1,636 Descending FlightAware ADS-B
Fri 01:40:28 AM 35.9780 140.2740 244° Southwest 209 241 4,800 -1,714 Descending FlightAware ADS-B
Fri 01:40:36 AM 35.9740 140.2670 235° Southwest 204 235 4,600 -1,500 Descending FlightAware ADS-B
Fri 01:40:40 AM 35.9720 140.2630 238° Southwest 202 232 4,500 -1,500 Descending FlightAware ADS-B
Fri 01:40:48 AM 35.9660 140.2580 214° Southwest 198 228 4,300 -1,286 Descending FlightAware ADS-B
Fri 01:40:54 AM 35.9610 140.2560 198° South 196 226 4,200 -1,500 Descending FlightAware ADS-B
Fri 01:41:00 AM 35.9550 140.2540 195° South 194 223 4,000 -2,087 Descending FlightAware ADS-B
Fri 01:41:17 AM 35.9410 140.2530 183° South 194 223 3,400 -1,622 Descending FlightAware ADS-B
Fri 01:41:37 AM 35.9250 140.2590 163° South 198 228 3,000 -882 Descending FlightAware ADS-B
Fri 01:41:51 AM 35.9170 140.2650 149° Southeast 195 224 2,900 -240 Descending FlightAware ADS-B
Fri 01:42:02 AM 35.9060 140.2730 149° Southeast 192 221 2,900 -194 Level FlightAware ADS-B
Fri 01:42:22 AM 35.8900 140.2850 149° Southeast 189 217 2,800 -750 Descending FlightAware ADS-B
Fri 01:42:42 AM 35.8750 140.2950 152° Southeast 184 212 2,400 -1,043 Descending FlightAware ADS-B
Fri 01:43:08 AM 35.8540 140.3100 150° Southeast 163 188 2,000 -955 Descending FlightAware ADS-B
Fri 01:43:26 AM 35.8430 140.3180 149° Southeast 146 168 1,700 -818 Descending FlightAware ADS-B
Fri 01:43:52 AM 35.8290 140.3290 148° Southeast 137 158 1,400 -652 Descending FlightAware ADS-B
Fri 01:44:12 AM 35.8180 140.3370 149° Southeast 137 158 1,200 -615 Descending FlightAware ADS-B
Fri 01:44:31 AM 35.8080 140.3440 150° Southeast 136 157 1,000 -600 Descending FlightAware ADS-B
Fri 01:44:52 AM 35.7960 140.3520 152° Southeast 134 154 800 -649 Descending FlightAware ADS-B
Fri 01:45:08 AM 35.7880 140.3590 145° Southeast 134 154 600 -727 Descending FlightAware ADS-B
Fri 01:45:25 AM 35.7790 140.3650 152° Southeast 133 153 400 -267 Descending FlightAware ADS-B
Fri 01:45:53 AM 35.7660 140.3750 148° Southeast 133 153 400  Level FlightAware ADS-B

Login

Don't have an account? Register now (free) for customized features, flight alerts, and more!